Terminal Aerodrome Forecast
Issued by NWS

Current Version | Previous Version | Text Only | Print | Product List | Glossary Off
Versions: 1 2 3 4 5 6 7 8 9 10 11 12 13 14 15 16 17 18 19 20 21

000
FTUS41 KILN 070200 AAA
TAFLCK
TAF AMD
KLCK 070244Z 0703/0724 20007KT P6SM FEW090 SCT250
     FM071400 22012KT P6SM BKN040
     FM071600 22014G24KT P6SM VCSH BKN040
     FM072000 22014G24KT P6SM VCTS BKN040CB=

USA.gov is the U.S. government's official web portal to all federal, state and local government web resources and services.